Skip Navigation LinksHome page > Weather > Current weather Skip Navigation Links

Current Weather

San Francisco International, San Francisco

For information only: do not use for flight planning or navigation.
Latest weather
Observation time Thursday, March 22, 2018 11:56 PM PDT
Local time Friday, March 23, 2018 12:18 AM PDT
Flight conditions Visual Meteorological Conditions
Wind direction West-Northwest (300°)
Wind speed 5 mph
Visibility 10 mi.
Sky condition
Ceiling unlimited
Cloud layer few clouds 3,700 ft.
Temperature 50°F
Dewpoint 34°F
Altimeter 30.14 in.Hg
Derived measurements
Relative humidity 54%
Wind chill 48°F
Density altitude -735 ft.
Sea-level pressure 30.14 in.Hg
System requires maintenance.
Automated weather observing station with precipitation discriminator.
METAR KSFO 230656Z 30004KT 10SM FEW037 10/01 A3014 RMK AO2 SLP207 T01000011 $


Location code

InnerDrive.Weather 4.0.6615.0 Release CLR 4.0.30319.42000
Copyright ©2018 Inner Drive Technology. All rights reserved. Portions Copyright ©1986-2018 David Braverman.

Find weather

Site navigation

Skip Navigation Links

Place info

Page info

PayPal - The safer, easier way to pay online!

Return home.

Copyright ©2018 Inner Drive Technology. Purveyors of fine, hand-crafted computer software. Page printed 2018-03-23T07:18:51 UTC.